createdAt,value
2022-08-05T06:21:02.180Z,6.88
2022-08-05T06:22:04.654Z,5.68
2022-08-05T06:23:07.908Z,9.60
2022-08-05T06:24:12.436Z,8.85
2022-08-05T06:25:25.270Z,7.25
2022-08-05T06:26:36.055Z,5.95
2022-08-05T06:28:12.287Z,8.77
2022-08-05T06:28:59.160Z,13.52
2022-08-05T06:30:18.163Z,23.48
2022-08-05T06:31:22.808Z,11.07
2022-08-05T06:32:33.455Z,8.25
2022-08-05T06:34:06.868Z,4.20
2022-08-05T06:34:58.230Z,6.22
2022-08-05T06:36:07.829Z,5.22
2022-08-05T06:37:12.392Z,11.38
2022-08-05T06:38:13.851Z,3.53
2022-08-05T06:39:15.481Z,5.88
2022-08-05T07:11:52.206Z,4.32
2022-08-05T07:13:12.082Z,4.97
2022-08-05T07:14:34.282Z,4.25
2022-08-05T07:16:01.935Z,4.70
2022-08-05T07:17:58.472Z,4.90
2022-08-05T07:18:29.932Z,5.68
2022-08-05T07:20:05.024Z,4.00
2022-08-05T07:20:54.204Z,4.68
2022-08-05T07:22:00.361Z,6.03
2022-08-05T07:23:02.817Z,5.80
2022-08-05T07:24:11.320Z,3.38
2022-08-05T07:25:22.509Z,4.63
2022-08-05T07:26:34.341Z,3.70
2022-08-05T07:27:58.445Z,3.78
2022-08-05T07:28:57.261Z,5.93
2022-08-05T07:30:24.592Z,3.20
2022-08-05T07:31:24.269Z,2.80
2022-08-05T07:32:45.658Z,3.97
2022-08-05T07:33:54.729Z,5.15
2022-08-05T07:35:01.348Z,2.47
2022-08-05T07:36:22.740Z,4.97
2022-08-05T07:37:25.113Z,2.20
2022-08-05T07:38:43.533Z,8.27
2022-08-05T07:40:04.696Z,6.68
2022-08-05T07:42:09.286Z,3.75
2022-08-05T07:42:34.075Z,2.35
2022-08-05T07:43:38.251Z,2.92
2022-08-05T07:44:39.686Z,8.00
2022-08-05T07:45:57.428Z,3.20
2022-08-05T07:46:59.883Z,5.85
2022-08-05T07:48:01.882Z,4.60
2022-08-05T07:49:06.177Z,5.95
2022-08-05T07:50:10.126Z,6.95
2022-08-05T08:24:01.800Z,5.40
2022-08-05T08:25:16.156Z,3.67
2022-08-05T08:26:29.392Z,5.20
2022-08-05T08:27:35.892Z,1.90
2022-08-05T08:28:55.306Z,3.20
2022-08-05T08:30:05.602Z,5.20
2022-08-05T08:31:21.934Z,4.93
2022-08-05T08:32:28.192Z,3.58
2022-08-05T08:33:29.757Z,3.35
2022-08-05T08:34:39.248Z,2.10
2022-08-05T08:35:41.287Z,3.85
2022-08-05T08:37:01.720Z,3.15
2022-08-05T08:38:06.798Z,3.08
2022-08-05T08:39:15.345Z,3.17
2022-08-05T08:40:20.030Z,4.10
2022-08-05T08:41:51.716Z,3.30
2022-08-05T08:42:52.789Z,4.50
2022-08-05T08:45:21.057Z,3.47
2022-08-05T08:45:27.126Z,3.75
2022-08-05T08:46:32.232Z,3.58
2022-08-05T08:48:06.694Z,5.05
2022-08-05T08:49:06.157Z,2.63
2022-08-05T08:50:29.896Z,4.63
2022-08-05T08:52:06.405Z,5.53
2022-08-05T08:53:08.007Z,4.55
2022-08-05T08:54:13.898Z,5.80
2022-08-05T08:55:19.659Z,3.22
2022-08-05T08:56:47.449Z,4.90
2022-08-05T08:57:58.056Z,4.00
2022-08-05T08:59:01.086Z,4.15
2022-08-05T09:00:11.664Z,3.30
2022-08-05T09:01:19.611Z,3.40
2022-08-05T09:02:24.217Z,7.60
2022-08-05T09:03:40.491Z,2.03
2022-08-05T09:04:58.480Z,5.80
2022-08-05T09:06:12.303Z,5.50
2022-08-05T09:07:19.364Z,2.40
2022-08-05T09:08:30.142Z,2.63
2022-08-05T09:09:35.406Z,4.93
2022-08-05T09:10:40.310Z,4.17
2022-08-05T09:11:52.037Z,3.90
2022-08-05T09:12:56.865Z,3.93
2022-08-05T09:14:54.846Z,8.70
2022-08-05T09:15:28.237Z,3.70
2022-08-05T09:16:32.188Z,3.50
2022-08-05T09:17:40.424Z,4.43
2022-08-05T09:18:44.382Z,11.00
2022-08-05T09:20:01.786Z,4.70
2022-08-05T09:21:05.264Z,7.13
2022-08-05T09:22:17.543Z,4.27
2022-08-05T09:23:23.527Z,4.50
2022-08-05T09:24:28.736Z,2.70
2022-08-05T09:26:01.239Z,4.87
2022-08-05T09:26:57.896Z,6.80
2022-08-05T09:28:10.842Z,12.70
2022-08-05T09:29:18.727Z,3.73
2022-08-05T09:30:23.524Z,4.17
2022-08-05T09:32:47.017Z,7.13
2022-08-05T09:32:51.177Z,2.30
2022-08-05T09:33:58.355Z,4.20
2022-08-05T09:35:01.628Z,6.23
2022-08-05T09:36:16.479Z,4.65
2022-08-05T09:38:12.771Z,4.45
2022-08-05T09:39:00.341Z,8.27
2022-08-05T09:40:04.427Z,2.70
2022-08-05T09:41:09.897Z,1.93
2022-08-05T09:42:23.392Z,4.90
2022-08-05T09:43:41.453Z,2.10
2022-08-05T09:44:50.407Z,6.10
2022-08-05T09:46:06.356Z,4.30
2022-08-05T09:47:15.516Z,3.73
2022-08-05T09:48:27.030Z,6.10
2022-08-05T09:49:54.354Z,5.90
2022-08-05T09:50:56.894Z,2.63
2022-08-05T09:51:58.292Z,3.20
2022-08-05T09:53:00.610Z,6.10
2022-08-05T09:54:05.212Z,2.50
2022-08-05T09:55:58.551Z,2.60
2022-08-05T09:56:35.951Z,5.10
2022-08-05T09:57:43.182Z,5.63
2022-08-05T09:59:17.517Z,3.37
2022-08-05T10:00:21.424Z,2.40
2022-08-05T10:01:32.077Z,4.67
2022-08-05T10:02:36.655Z,6.03
2022-08-05T10:03:59.038Z,2.50
2022-08-05T10:05:08.008Z,3.10
2022-08-05T10:06:15.543Z,1.93
2022-08-05T10:07:20.098Z,2.40
2022-08-05T10:33:42.489Z,2.80
2022-08-05T10:34:45.304Z,5.63
2022-08-05T10:35:52.624Z,8.23
2022-08-05T10:37:02.372Z,2.33
2022-08-05T10:38:05.413Z,3.53
2022-08-05T10:40:03.307Z,2.27
2022-08-05T10:41:07.606Z,2.67
2022-08-05T10:42:18.428Z,2.53
2022-08-05T10:43:46.160Z,4.40
2022-08-05T10:44:51.352Z,4.33
2022-08-05T10:46:06.626Z,4.47
2022-08-05T10:47:26.920Z,3.00
2022-08-05T10:48:39.597Z,7.13
2022-08-05T10:50:32.324Z,3.30
2022-08-05T10:51:59.709Z,3.43
2022-08-05T10:53:02.393Z,1.63
2022-08-05T10:54:05.854Z,3.37
2022-08-05T10:55:25.083Z,2.57
2022-08-05T10:56:29.464Z,3.00
2022-08-05T10:57:34.028Z,3.27
2022-08-05T10:58:48.802Z,9.40
2022-08-05T11:00:20.236Z,2.67
2022-08-05T11:01:54.560Z,4.77
2022-08-05T11:03:25.201Z,4.00
2022-08-05T11:04:27.872Z,4.30
2022-08-05T11:05:34.061Z,2.30
2022-08-05T11:07:06.988Z,3.97
2022-08-05T11:08:36.647Z,3.83
2022-08-05T11:09:48.342Z,4.77
2022-08-05T11:10:50.426Z,6.17
2022-08-05T11:12:03.974Z,6.63
2022-08-05T11:13:06.865Z,2.23
2022-08-05T11:14:08.629Z,2.40
2022-08-05T11:15:20.379Z,2.90
2022-08-05T11:16:33.706Z,2.63
2022-08-05T11:17:56.740Z,3.77
2022-08-05T11:20:10.665Z,4.07
2022-08-05T11:20:54.121Z,3.43
2022-08-05T11:22:16.106Z,1.80
2022-08-05T11:24:04.102Z,3.60
2022-08-05T11:26:04.685Z,3.23
2022-08-05T11:27:29.147Z,4.27
2022-08-05T11:28:52.847Z,2.10
2022-08-05T11:30:00.062Z,7.13
2022-08-05T11:31:02.437Z,3.93
2022-08-05T11:32:28.953Z,1.47
2022-08-05T11:33:48.174Z,1.70
2022-08-05T11:34:54.208Z,3.63
2022-08-05T11:36:08.661Z,4.37
2022-08-05T11:38:29.337Z,1.73
2022-08-05T11:38:45.476Z,1.93
2022-08-05T11:39:55.230Z,4.90
2022-08-05T11:41:12.817Z,2.27
2022-08-05T11:42:23.104Z,2.30
2022-08-05T11:44:01.031Z,5.70
2022-08-05T11:45:05.342Z,2.77
2022-08-05T11:46:27.275Z,1.83
2022-08-05T11:47:48.235Z,7.87
2022-08-05T11:48:51.103Z,8.77
2022-08-05T11:49:57.529Z,2.90
2022-08-05T11:50:59.574Z,5.60
2022-08-05T11:52:01.533Z,1.87
2022-08-05T11:53:10.366Z,4.87
2022-08-05T11:54:33.955Z,1.47
2022-08-05T11:55:36.656Z,3.20
2022-08-05T11:56:44.748Z,1.63
2022-08-05T11:58:09.939Z,7.23
2022-08-05T11:59:16.145Z,2.17
2022-08-05T12:00:30.617Z,1.70
2022-08-05T12:01:32.124Z,1.87
2022-08-05T12:02:36.263Z,4.40
2022-08-05T12:03:41.627Z,2.53
2022-08-05T12:04:53.498Z,3.77
2022-08-05T12:06:03.306Z,1.70
2022-08-05T12:07:09.210Z,11.13
2022-08-05T12:08:11.707Z,2.73
2022-08-05T12:09:23.922Z,4.00
2022-08-05T12:10:46.632Z,1.30
2022-08-05T12:11:50.623Z,1.50
2022-08-05T12:12:59.191Z,2.03
2022-08-05T12:14:11.592Z,1.37
2022-08-05T12:15:35.826Z,2.90
2022-08-05T12:16:45.436Z,3.70
2022-08-05T12:18:04.099Z,1.60
2022-08-05T12:19:11.224Z,3.47
2022-08-05T12:20:34.539Z,1.20
2022-08-05T12:21:43.644Z,1.77
2022-08-05T12:22:47.338Z,2.73
2022-08-05T12:24:04.349Z,2.40
2022-08-05T12:25:07.413Z,2.33
2022-08-05T12:26:09.197Z,1.53
2022-08-05T12:27:21.516Z,3.70
2022-08-05T12:28:33.571Z,3.40
2022-08-05T12:29:38.848Z,5.97
2022-08-05T12:30:45.651Z,2.47
2022-08-05T12:31:57.591Z,1.60
2022-08-05T12:33:07.255Z,1.50
2022-08-05T12:34:25.710Z,2.23
2022-08-05T12:35:39.533Z,1.30
2022-08-05T12:36:42.830Z,1.17
2022-08-05T12:37:46.712Z,2.43
2022-08-05T12:38:50.093Z,1.30
2022-08-05T12:39:53.975Z,3.00
2022-08-05T12:40:57.341Z,1.17
2022-08-05T12:42:01.791Z,1.70
2022-08-05T12:43:06.897Z,1.20
2022-08-05T12:44:14.403Z,1.33
2022-08-05T12:45:16.074Z,3.10
2022-08-05T12:46:29.131Z,2.43
2022-08-05T12:47:31.479Z,1.60
2022-08-05T12:48:39.807Z,3.67
2022-08-05T12:50:04.853Z,2.50
2022-08-05T12:52:11.132Z,2.13
2022-08-05T12:52:42.448Z,2.67
2022-08-05T12:53:55.715Z,2.30
2022-08-05T12:54:57.645Z,1.47
2022-08-05T12:56:00.454Z,1.93
2022-08-05T12:57:04.510Z,2.20
2022-08-05T12:58:49.715Z,1.40
2022-08-05T13:01:57.535Z,1.93
2022-08-05T13:02:02.136Z,3.10
2022-08-05T13:02:37.193Z,1.50
2022-08-05T13:03:43.309Z,1.80
2022-08-05T13:04:54.798Z,1.73
2022-08-05T13:05:56.406Z,2.73
2022-08-05T13:07:00.449Z,2.47
2022-08-05T13:08:05.126Z,2.40
2022-08-05T13:09:12.715Z,4.07
2022-08-05T13:10:19.417Z,3.33
2022-08-05T13:12:02.558Z,5.00
2022-08-05T13:12:58.159Z,4.50
2022-08-05T13:14:06.134Z,2.43
2022-08-05T13:15:17.184Z,3.00
2022-08-05T13:16:27.876Z,1.87
2022-08-05T13:17:41.760Z,2.10
2022-08-05T13:18:57.974Z,2.23
2022-08-05T13:20:04.266Z,2.50
2022-08-05T13:21:05.930Z,4.00
2022-08-05T13:22:07.464Z,2.00
2022-08-05T13:23:13.621Z,1.57
2022-08-05T13:24:36.395Z,1.73
2022-08-05T13:25:52.192Z,2.27
2022-08-05T13:27:00.702Z,1.67
2022-08-05T13:28:04.619Z,5.13
2022-08-05T13:29:06.133Z,6.10
2022-08-05T13:30:34.106Z,1.87
2022-08-05T13:31:33.700Z,3.70
2022-08-05T13:32:54.350Z,1.80
2022-08-05T13:34:22.239Z,2.80
2022-08-05T13:35:22.136Z,4.27
2022-08-05T13:36:34.239Z,1.50
2022-08-05T13:37:36.147Z,1.90
2022-08-05T13:38:38.428Z,1.27
2022-08-05T13:40:16.278Z,6.73
2022-08-05T13:41:06.288Z,6.03
2022-08-05T13:42:14.785Z,3.10
2022-08-05T13:43:21.782Z,1.70
2022-08-05T13:44:23.756Z,1.80
2022-08-05T13:45:31.032Z,2.43
2022-08-05T13:48:09.152Z,22.03
2022-08-05T13:49:23.220Z,1.60
2022-08-05T13:50:24.884Z,4.20
2022-08-05T13:51:40.064Z,2.57
2022-08-05T13:52:42.158Z,8.67
2022-08-05T13:53:48.162Z,3.80
2022-08-05T13:54:53.294Z,8.97
2022-08-05T13:56:00.186Z,1.70
2022-08-05T13:57:04.153Z,3.40
2022-08-05T13:58:07.732Z,2.00
2022-08-05T13:59:20.333Z,4.63
2022-08-05T14:00:27.001Z,3.77
2022-08-05T14:01:36.423Z,3.13
2022-08-05T14:02:48.142Z,3.40
2022-08-05T14:04:09.862Z,2.03
2022-08-05T14:05:11.914Z,2.97
2022-08-05T14:06:25.913Z,4.40
2022-08-05T14:08:01.010Z,1.70
2022-08-05T14:08:55.422Z,1.63
2022-08-05T14:10:02.239Z,4.70
2022-08-05T14:11:19.967Z,3.37
2022-08-05T14:12:32.674Z,3.17
2022-08-05T14:13:34.413Z,2.47
2022-08-05T14:14:35.934Z,5.53
2022-08-05T14:16:07.006Z,2.03
2022-08-05T14:16:59.940Z,9.20
2022-08-05T14:18:02.726Z,4.90
2022-08-05T14:19:05.361Z,4.50
2022-08-05T14:20:08.326Z,2.70
2022-08-05T14:22:07.203Z,1.40
2022-08-05T14:22:34.529Z,1.20
2022-08-05T14:23:37.281Z,3.00
2022-08-05T14:24:39.873Z,2.70
2022-08-05T14:25:45.025Z,1.47
2022-08-05T14:27:01.962Z,4.40
2022-08-05T14:28:08.185Z,1.70
2022-08-05T14:29:16.617Z,2.60
2022-08-05T14:30:20.388Z,3.57
2022-08-05T14:31:54.349Z,1.70
2022-08-05T14:32:44.330Z,1.67
2022-08-05T14:33:59.755Z,2.27
2022-08-05T14:35:01.990Z,2.83
2022-08-05T14:36:04.492Z,2.07
2022-08-05T14:37:06.021Z,1.73
2022-08-05T14:38:07.986Z,1.93
2022-08-05T14:39:29.505Z,1.73
2022-08-05T14:40:30.974Z,2.63
2022-08-05T14:41:33.019Z,2.70
2022-08-05T14:42:34.889Z,4.53
2022-08-05T14:43:59.036Z,2.33
2022-08-05T14:45:00.825Z,2.70
2022-08-05T14:46:02.397Z,2.00
2022-08-05T14:47:04.314Z,1.90
2022-08-05T14:48:08.851Z,4.63
2022-08-05T14:49:10.412Z,3.37
2022-08-05T14:50:18.168Z,3.47
2022-08-05T14:51:20.172Z,2.97
2022-08-05T14:52:42.796Z,3.00
2022-08-05T14:53:44.650Z,3.50
2022-08-05T14:54:53.036Z,3.20
2022-08-05T14:55:54.884Z,3.77
2022-08-05T14:56:57.381Z,2.10
2022-08-05T14:57:58.814Z,3.93
2022-08-05T14:59:01.699Z,5.67
2022-08-05T15:00:05.852Z,3.43
2022-08-05T15:01:16.036Z,5.60
2022-08-05T15:02:18.919Z,2.00
2022-08-05T15:03:22.908Z,2.37
2022-08-05T15:04:24.493Z,5.80
2022-08-05T15:06:07.550Z,3.57
2022-08-05T15:06:52.010Z,3.60
2022-08-05T15:08:11.518Z,3.80
2022-08-05T15:09:15.404Z,6.90
2022-08-05T15:10:16.910Z,5.97
2022-08-05T15:11:18.314Z,2.07
2022-08-05T15:12:20.909Z,7.67
2022-08-05T15:13:45.054Z,2.87
2022-08-05T15:14:50.236Z,1.90
2022-08-05T15:15:55.434Z,5.30
2022-08-05T15:16:59.191Z,5.77
2022-08-05T15:18:03.729Z,3.90
2022-08-05T15:19:07.003Z,3.77
2022-08-05T15:20:18.767Z,6.60
2022-08-05T15:21:21.354Z,2.30
2022-08-05T15:22:27.010Z,2.23
2022-08-05T15:23:29.291Z,2.90
2022-08-05T15:24:30.701Z,6.00
2022-08-05T15:25:51.521Z,4.93
2022-08-05T15:26:53.270Z,4.60
2022-08-05T15:27:57.349Z,2.40
2022-08-05T15:28:58.797Z,6.60
2022-08-05T15:30:05.346Z,5.20
2022-08-05T15:31:07.007Z,12.90
2022-08-05T15:32:10.353Z,2.90
2022-08-05T15:33:11.882Z,4.73
2022-08-05T15:34:31.830Z,10.03
2022-08-05T15:35:36.165Z,7.10
2022-08-05T15:36:46.416Z,7.13
2022-08-05T15:38:33.856Z,9.97
2022-08-05T15:40:40.943Z,3.87
2022-08-05T15:41:03.338Z,4.20
2022-08-05T15:41:57.356Z,3.97
2022-08-05T15:43:12.724Z,3.60
2022-08-05T15:44:16.693Z,4.10
2022-08-05T15:45:36.308Z,4.60
2022-08-05T15:46:40.423Z,9.63
2022-08-05T15:47:43.987Z,9.23
2022-08-05T15:48:51.935Z,3.80
2022-08-05T15:49:58.460Z,4.00
2022-08-05T15:51:05.770Z,4.20
2022-08-05T15:52:13.306Z,4.87
2022-08-05T15:53:18.612Z,8.47
2022-08-05T15:54:34.459Z,6.60
2022-08-05T15:56:04.227Z,2.90
2022-08-05T15:56:58.146Z,9.50
2022-08-05T15:58:00.689Z,5.77
2022-08-05T15:59:04.151Z,10.73
2022-08-05T16:00:08.882Z,4.20
2022-08-05T16:01:17.358Z,4.43
2022-08-05T16:02:25.560Z,8.93
2022-08-05T16:03:27.219Z,5.33
2022-08-05T16:04:30.039Z,4.30
2022-08-05T16:05:31.452Z,4.50
2022-08-05T16:06:32.886Z,5.20
2022-08-05T16:07:34.797Z,5.40
2022-08-05T16:08:36.779Z,5.18
2022-08-05T16:09:41.819Z,4.93
2022-08-05T16:10:43.538Z,10.70
2022-08-05T16:11:47.584Z,4.13
2022-08-05T16:12:56.061Z,7.32
2022-08-05T16:13:57.694Z,4.73
2022-08-05T16:14:59.170Z,3.75
2022-08-05T16:16:00.605Z,10.27
2022-08-05T16:17:02.326Z,4.93
2022-08-05T16:18:04.333Z,5.22
2022-08-05T16:19:10.692Z,7.80
2022-08-05T16:20:20.558Z,4.45
2022-08-05T16:21:58.886Z,6.00
2022-08-05T16:22:43.367Z,5.15
2022-08-05T16:23:54.306Z,5.03
2022-08-05T16:24:56.806Z,4.53
2022-08-05T16:26:11.058Z,6.00
2022-08-05T16:27:15.838Z,3.47
2022-08-05T16:28:18.046Z,4.75
2022-08-05T16:29:20.701Z,5.30
2022-08-05T16:30:25.748Z,3.88
2022-08-05T16:31:27.963Z,7.97
2022-08-05T16:32:49.395Z,3.33
2022-08-05T16:33:52.176Z,6.20
2022-08-05T16:34:54.963Z,5.30
2022-08-05T16:36:05.259Z,3.58
2022-08-05T16:38:03.707Z,7.32
2022-08-05T16:38:28.486Z,5.93
2022-08-05T16:40:05.190Z,6.15
2022-08-05T16:40:59.514Z,7.28
2022-08-05T16:42:15.339Z,3.92
2022-08-05T16:43:19.166Z,4.80
2022-08-05T16:44:21.879Z,7.13
2022-08-05T16:46:04.819Z,12.73
2022-08-05T16:46:55.768Z,3.60
2022-08-05T16:48:02.702Z,5.30
2022-08-05T16:49:05.384Z,5.97
2022-08-05T16:50:08.585Z,10.95
2022-08-05T16:51:10.934Z,5.47
2022-08-05T16:52:12.518Z,4.82
2022-08-05T16:53:22.415Z,7.88
2022-08-05T16:54:28.911Z,6.15
2022-08-05T16:55:46.332Z,10.15
2022-08-05T16:56:51.971Z,5.75
2022-08-05T16:58:00.170Z,3.05
2022-08-05T16:59:07.987Z,5.82
2022-08-05T17:00:10.965Z,4.32
2022-08-05T17:01:12.776Z,4.97
2022-08-05T17:02:14.319Z,6.90
2022-08-05T17:03:19.646Z,5.15
2022-08-05T17:04:21.909Z,3.75
2022-08-05T17:05:25.342Z,4.47
2022-08-05T17:06:27.169Z,6.25
2022-08-05T17:07:39.401Z,4.22
2022-08-05T17:08:52.720Z,4.88
2022-08-05T17:09:59.429Z,6.75
2022-08-05T17:11:02.528Z,5.57
2022-08-05T17:12:04.307Z,5.50
2022-08-05T17:13:05.894Z,8.52
2022-08-05T17:14:22.179Z,4.25
2022-08-05T17:15:48.676Z,4.63
2022-08-05T17:16:53.270Z,3.65
2022-08-05T17:17:55.493Z,4.30
2022-08-05T17:18:59.382Z,3.80
2022-08-05T17:20:02.036Z,3.40
2022-08-05T17:21:03.641Z,4.28
2022-08-05T17:22:05.990Z,3.80
2022-08-05T17:23:10.968Z,9.13
2022-08-05T17:24:38.586Z,6.25
2022-08-05T17:25:43.849Z,4.43
2022-08-05T17:26:45.570Z,3.72
2022-08-05T17:27:49.775Z,3.10
2022-08-05T17:28:54.133Z,5.80
2022-08-05T17:29:59.771Z,6.30
2022-08-05T17:31:08.534Z,6.63
2022-08-05T17:32:24.471Z,6.22
2022-08-05T17:33:28.075Z,5.22
2022-08-05T17:34:40.988Z,7.10
2022-08-05T17:36:09.112Z,8.18
2022-08-05T17:37:27.247Z,4.57
2022-08-05T17:38:27.434Z,5.75
2022-08-05T17:39:34.607Z,9.65
2022-08-05T17:40:36.417Z,6.90
2022-08-05T17:42:19.961Z,7.65
2022-08-05T17:43:03.635Z,9.70
2022-08-05T17:44:11.233Z,9.98
2022-08-05T17:45:20.875Z,9.80
2022-08-05T17:46:23.703Z,7.78
2022-08-05T17:47:25.200Z,21.25
2022-08-05T17:48:27.571Z,8.15
2022-08-05T17:49:28.977Z,8.32
2022-08-05T17:50:50.403Z,12.05
2022-08-05T17:51:51.988Z,18.02
2022-08-05T17:53:01.538Z,10.45
2022-08-05T17:54:03.101Z,9.70
2022-08-05T17:55:05.062Z,11.60
2022-08-05T17:56:09.521Z,9.98
2022-08-05T17:57:12.290Z,10.70
2022-08-05T17:58:14.646Z,8.30
2022-08-05T17:59:20.985Z,13.88
2022-08-05T18:00:29.419Z,10.20
2022-08-05T18:01:50.433Z,9.82
2022-08-05T18:02:52.221Z,13.85
2022-08-05T18:04:04.780Z,11.85
2022-08-05T18:05:08.277Z,9.77
2022-08-05T18:06:12.180Z,11.35
2022-08-05T18:07:16.807Z,13.13
2022-08-05T18:08:18.253Z,11.75
2022-08-05T18:09:19.764Z,12.02
2022-08-05T18:10:21.754Z,10.88
2022-08-05T18:11:33.221Z,14.77
2022-08-05T18:12:35.270Z,17.05
2022-08-05T18:13:44.045Z,13.27
2022-08-05T18:14:49.614Z,13.35
2022-08-05T18:15:52.808Z,13.23
2022-08-05T18:16:55.918Z,13.63
2022-08-05T18:18:01.699Z,18.88
2022-08-05T18:19:07.321Z,12.38
2022-08-05T18:20:14.175Z,13.38
2022-08-05T18:21:19.900Z,13.70
2022-08-05T18:22:36.275Z,23.02
2022-08-05T18:23:47.718Z,15.20
2022-08-05T18:24:49.157Z,14.38
2022-08-05T18:25:57.405Z,12.95
2022-08-05T18:26:59.351Z,19.60
2022-08-05T18:28:04.920Z,13.27
2022-08-05T18:29:06.933Z,13.73
2022-08-05T18:30:19.776Z,20.50
2022-08-05T18:31:22.325Z,17.13
2022-08-05T18:32:28.091Z,19.35
2022-08-05T18:33:43.180Z,15.63
2022-08-05T18:34:48.873Z,16.40
2022-08-05T18:36:03.339Z,17.42
2022-08-05T18:37:12.418Z,14.43
2022-08-05T18:38:16.323Z,18.48
2022-08-05T18:39:22.329Z,19.25
2022-08-05T18:41:58.007Z,18.98
2022-08-05T18:42:10.989Z,16.73
2022-08-05T18:43:16.278Z,16.13
2022-08-05T18:44:33.360Z,19.50
2022-08-05T18:45:41.809Z,14.40
2022-08-05T18:46:43.615Z,16.20
2022-08-05T18:47:46.418Z,17.95
2022-08-05T18:48:51.790Z,15.77
2022-08-05T18:50:13.018Z,15.95
2022-08-05T18:52:04.746Z,14.75
2022-08-05T18:52:57.316Z,14.00
2022-08-05T18:53:58.795Z,17.02
2022-08-05T18:55:00.703Z,12.45
2022-08-05T18:56:02.190Z,14.75
2022-08-05T18:57:15.360Z,19.60
2022-08-05T18:58:18.491Z,20.05
2022-08-05T18:59:44.279Z,14.75
2022-08-05T19:00:51.390Z,14.55
2022-08-05T19:01:56.994Z,16.55
2022-08-05T19:03:04.274Z,18.98
2022-08-05T19:04:06.193Z,12.95
2022-08-05T19:06:11.363Z,12.63
2022-08-05T19:06:44.579Z,12.65
2022-08-05T19:07:49.870Z,12.85
2022-08-05T19:08:51.470Z,11.50
2022-08-05T19:09:55.326Z,12.43
2022-08-05T19:10:58.498Z,12.43
2022-08-05T19:12:01.622Z,11.07
2022-08-05T19:13:03.489Z,11.40
2022-08-05T19:14:44.465Z,17.05
